Terminal Aerodrome Forecast
Issued by NWS Cleveland, OH

Home | Current Version | Previous Version | Graphics & Text | Print | Product List | Glossary On
Versions: 1 2 3 4 5 6 7 8 9 10 11 12 13 14 15 16 17 18 19 20 21
000
FTUS41 KCLE 231100
TAFYNG
TAF
KYNG 231124Z 2312/2412 13010KT P6SM -SHRA OVC060
     FM231230 13010KT P6SM OVC060
     FM231400 13009KT P6SM OVC030
     FM231900 16007KT 6SM -DZ BR OVC020
     FM240600 14006KT 3SM -SHRA BR OVC003=

USA.gov is the U.S. government's official web portal to all federal, state and local government web resources and services.